sensor_id;sensor_type;location;lat;lon;timestamp;P1;durP1;ratioP1;P2;durP2;ratioP2
3881;SDS011;1956;53.482;10.238;2023-03-21T00:04:55;31.60;;;21.83;;
3881;SDS011;1956;53.482;10.238;2023-03-21T00:09:55;32.07;;;21.87;;
3881;SDS011;1956;53.482;10.238;2023-03-21T00:14:56;29.97;;;22.03;;
3881;SDS011;1956;53.482;10.238;2023-03-21T00:20:04;36.00;;;21.43;;
3881;SDS011;1956;53.482;10.238;2023-03-21T00:25:04;37.27;;;24.13;;
3881;SDS011;1956;53.482;10.238;2023-03-21T00:30:05;34.00;;;21.83;;
3881;SDS011;1956;53.482;10.238;2023-03-21T00:35:06;36.73;;;24.17;;
3881;SDS011;1956;53.482;10.238;2023-03-21T00:40:06;37.40;;;25.40;;
3881;SDS011;1956;53.482;10.238;2023-03-21T00:45:09;40.83;;;25.83;;
3881;SDS011;1956;53.482;10.238;2023-03-21T00:50:10;42.17;;;27.40;;
3881;SDS011;1956;53.482;10.238;2023-03-21T00:55:14;54.77;;;25.37;;
3881;SDS011;1956;53.482;10.238;2023-03-21T01:00:15;45.47;;;27.83;;
3881;SDS011;1956;53.482;10.238;2023-03-21T01:05:16;42.53;;;26.37;;
3881;SDS011;1956;53.482;10.238;2023-03-21T01:10:38;43.93;;;27.23;;
3881;SDS011;1956;53.482;10.238;2023-03-21T01:15:42;47.87;;;28.67;;
3881;SDS011;1956;53.482;10.238;2023-03-21T01:20:43;43.30;;;28.83;;
3881;SDS011;1956;53.482;10.238;2023-03-21T01:25:45;48.87;;;27.80;;
3881;SDS011;1956;53.482;10.238;2023-03-21T01:30:46;44.47;;;30.23;;
3881;SDS011;1956;53.482;10.238;2023-03-21T01:35:47;51.00;;;29.97;;
3881;SDS011;1956;53.482;10.238;2023-03-21T01:40:47;49.40;;;30.40;;
3881;SDS011;1956;53.482;10.238;2023-03-21T01:46:06;53.30;;;30.30;;
3881;SDS011;1956;53.482;10.238;2023-03-21T01:51:10;47.93;;;28.00;;
3881;SDS011;1956;53.482;10.238;2023-03-21T01:56:13;51.57;;;30.03;;
3881;SDS011;1956;53.482;10.238;2023-03-21T02:01:15;50.77;;;30.93;;
3881;SDS011;1956;53.482;10.238;2023-03-21T02:06:28;50.00;;;30.10;;
3881;SDS011;1956;53.482;10.238;2023-03-21T02:11:30;54.60;;;31.73;;
3881;SDS011;1956;53.482;10.238;2023-03-21T02:16:45;52.27;;;30.30;;
3881;SDS011;1956;53.482;10.238;2023-03-21T02:27:23;57.20;;;31.30;;
3881;SDS011;1956;53.482;10.238;2023-03-21T02:32:49;51.60;;;29.17;;
3881;SDS011;1956;53.482;10.238;2023-03-21T02:38:06;52.00;;;30.80;;
3881;SDS011;1956;53.482;10.238;2023-03-21T02:43:27;52.07;;;30.73;;
3881;SDS011;1956;53.482;10.238;2023-03-21T02:48:33;58.53;;;31.70;;
3881;SDS011;1956;53.482;10.238;2023-03-21T02:53:37;56.70;;;30.63;;
3881;SDS011;1956;53.482;10.238;2023-03-21T02:58:39;50.93;;;29.10;;
3881;SDS011;1956;53.482;10.238;2023-03-21T03:03:40;52.83;;;31.63;;
3881;SDS011;1956;53.482;10.238;2023-03-21T03:09:03;56.93;;;31.53;;
3881;SDS011;1956;53.482;10.238;2023-03-21T03:14:17;62.03;;;30.90;;
3881;SDS011;1956;53.482;10.238;2023-03-21T03:19:28;53.17;;;31.40;;
3881;SDS011;1956;53.482;10.238;2023-03-21T03:24:30;52.90;;;31.23;;
3881;SDS011;1956;53.482;10.238;2023-03-21T03:29:32;60.20;;;33.00;;
3881;SDS011;1956;53.482;10.238;2023-03-21T03:34:35;59.93;;;31.90;;
3881;SDS011;1956;53.482;10.238;2023-03-21T03:39:45;52.53;;;30.03;;
3881;SDS011;1956;53.482;10.238;2023-03-21T03:44:46;64.70;;;34.27;;
3881;SDS011;1956;53.482;10.238;2023-03-21T03:49:49;53.03;;;32.57;;
3881;SDS011;1956;53.482;10.238;2023-03-21T03:54:51;55.80;;;31.53;;
3881;SDS011;1956;53.482;10.238;2023-03-21T03:59:52;55.70;;;32.30;;
3881;SDS011;1956;53.482;10.238;2023-03-21T04:04:52;55.37;;;31.90;;
3881;SDS011;1956;53.482;10.238;2023-03-21T04:09:52;61.77;;;32.30;;
3881;SDS011;1956;53.482;10.238;2023-03-21T04:14:53;64.27;;;34.13;;
3881;SDS011;1956;53.482;10.238;2023-03-21T04:19:53;63.77;;;30.83;;
3881;SDS011;1956;53.482;10.238;2023-03-21T04:24:53;64.40;;;33.87;;
3881;SDS011;1956;53.482;10.238;2023-03-21T04:29:53;58.50;;;33.50;;
3881;SDS011;1956;53.482;10.238;2023-03-21T04:34:55;61.00;;;35.43;;
3881;SDS011;1956;53.482;10.238;2023-03-21T04:39:55;56.00;;;31.10;;
3881;SDS011;1956;53.482;10.238;2023-03-21T04:44:55;60.20;;;34.00;;
3881;SDS011;1956;53.482;10.238;2023-03-21T04:49:55;63.90;;;34.80;;
3881;SDS011;1956;53.482;10.238;2023-03-21T04:54:59;62.07;;;35.20;;
3881;SDS011;1956;53.482;10.238;2023-03-21T04:59:59;65.63;;;36.90;;
3881;SDS011;1956;53.482;10.238;2023-03-21T05:05:00;55.27;;;34.00;;
3881;SDS011;1956;53.482;10.238;2023-03-21T05:10:01;73.63;;;37.27;;
3881;SDS011;1956;53.482;10.238;2023-03-21T05:15:01;67.83;;;36.23;;
3881;SDS011;1956;53.482;10.238;2023-03-21T05:20:01;69.87;;;37.07;;
3881;SDS011;1956;53.482;10.238;2023-03-21T05:25:03;81.50;;;39.37;;
3881;SDS011;1956;53.482;10.238;2023-03-21T05:30:06;83.30;;;38.23;;
3881;SDS011;1956;53.482;10.238;2023-03-21T05:35:07;75.33;;;38.00;;
3881;SDS011;1956;53.482;10.238;2023-03-21T05:40:08;74.07;;;38.03;;
3881;SDS011;1956;53.482;10.238;2023-03-21T05:45:09;78.53;;;37.17;;
3881;SDS011;1956;53.482;10.238;2023-03-21T05:50:09;78.13;;;37.30;;
3881;SDS011;1956;53.482;10.238;2023-03-21T05:55:10;81.27;;;36.97;;
3881;SDS011;1956;53.482;10.238;2023-03-21T06:00:10;84.50;;;39.47;;
3881;SDS011;1956;53.482;10.238;2023-03-21T06:05:11;85.43;;;39.60;;
3881;SDS011;1956;53.482;10.238;2023-03-21T06:10:11;77.13;;;38.83;;
3881;SDS011;1956;53.482;10.238;2023-03-21T06:15:11;96.90;;;39.87;;
3881;SDS011;1956;53.482;10.238;2023-03-21T06:20:12;84.37;;;39.53;;
3881;SDS011;1956;53.482;10.238;2023-03-21T06:25:12;76.60;;;37.13;;
3881;SDS011;1956;53.482;10.238;2023-03-21T06:30:13;88.30;;;40.55;;
3881;SDS011;1956;53.482;10.238;2023-03-21T06:35:13;91.73;;;40.40;;
3881;SDS011;1956;53.482;10.238;2023-03-21T06:40:14;101.50;;;44.83;;
3881;SDS011;1956;53.482;10.238;2023-03-21T06:45:15;92.67;;;40.83;;
3881;SDS011;1956;53.482;10.238;2023-03-21T06:50:15;94.53;;;43.50;;
3881;SDS011;1956;53.482;10.238;2023-03-21T06:55:15;84.40;;;39.50;;
3881;SDS011;1956;53.482;10.238;2023-03-21T07:00:18;72.77;;;39.47;;
3881;SDS011;1956;53.482;10.238;2023-03-21T07:05:19;77.43;;;41.07;;
3881;SDS011;1956;53.482;10.238;2023-03-21T07:10:22;85.13;;;41.83;;
3881;SDS011;1956;53.482;10.238;2023-03-21T07:15:22;95.20;;;41.20;;
3881;SDS011;1956;53.482;10.238;2023-03-21T07:20:23;85.67;;;41.00;;
3881;SDS011;1956;53.482;10.238;2023-03-21T07:25:23;96.95;;;43.85;;
3881;SDS011;1956;53.482;10.238;2023-03-21T07:30:23;78.53;;;39.77;;
3881;SDS011;1956;53.482;10.238;2023-03-21T07:35:24;84.70;;;41.23;;
3881;SDS011;1956;53.482;10.238;2023-03-21T07:40:24;89.73;;;43.60;;
3881;SDS011;1956;53.482;10.238;2023-03-21T07:45:24;79.83;;;41.73;;
3881;SDS011;1956;53.482;10.238;2023-03-21T07:50:26;76.20;;;41.60;;
3881;SDS011;1956;53.482;10.238;2023-03-21T07:55:26;82.50;;;41.72;;
3881;SDS011;1956;53.482;10.238;2023-03-21T08:00:27;78.40;;;40.90;;
3881;SDS011;1956;53.482;10.238;2023-03-21T08:05:36;84.10;;;41.93;;
3881;SDS011;1956;53.482;10.238;2023-03-21T08:10:37;88.20;;;42.83;;
3881;SDS011;1956;53.482;10.238;2023-03-21T08:15:37;75.47;;;39.30;;
3881;SDS011;1956;53.482;10.238;2023-03-21T08:20:41;76.30;;;41.90;;
3881;SDS011;1956;53.482;10.238;2023-03-21T08:25:41;70.43;;;38.90;;
3881;SDS011;1956;53.482;10.238;2023-03-21T08:30:41;69.10;;;40.50;;
3881;SDS011;1956;53.482;10.238;2023-03-21T08:35:42;74.63;;;38.27;;
3881;SDS011;1956;53.482;10.238;2023-03-21T08:40:42;81.30;;;42.33;;
3881;SDS011;1956;53.482;10.238;2023-03-21T08:45:42;78.40;;;38.87;;
3881;SDS011;1956;53.482;10.238;2023-03-21T08:50:42;70.80;;;39.73;;
3881;SDS011;1956;53.482;10.238;2023-03-21T08:55:43;76.47;;;36.80;;
3881;SDS011;1956;53.482;10.238;2023-03-21T09:00:43;68.63;;;37.40;;
3881;SDS011;1956;53.482;10.238;2023-03-21T09:05:44;73.83;;;36.90;;
3881;SDS011;1956;53.482;10.238;2023-03-21T09:10:44;65.23;;;35.73;;
3881;SDS011;1956;53.482;10.238;2023-03-21T09:15:44;57.67;;;33.77;;
3881;SDS011;1956;53.482;10.238;2023-03-21T09:20:45;61.70;;;35.23;;
3881;SDS011;1956;53.482;10.238;2023-03-21T09:25:46;61.40;;;34.10;;
3881;SDS011;1956;53.482;10.238;2023-03-21T09:30:46;59.30;;;33.20;;
3881;SDS011;1956;53.482;10.238;2023-03-21T09:35:47;54.00;;;32.53;;
3881;SDS011;1956;53.482;10.238;2023-03-21T09:41:51;55.57;;;33.30;;
3881;SDS011;1956;53.482;10.238;2023-03-21T09:46:25;49.50;;;30.53;;
3881;SDS011;1956;53.482;10.238;2023-03-21T09:51:27;56.23;;;33.37;;
3881;SDS011;1956;53.482;10.238;2023-03-21T09:56:30;54.80;;;31.17;;
3881;SDS011;1956;53.482;10.238;2023-03-21T10:01:30;54.85;;;30.13;;
3881;SDS011;1956;53.482;10.238;2023-03-21T10:06:40;55.70;;;31.40;;
3881;SDS011;1956;53.482;10.238;2023-03-21T10:17:28;55.73;;;32.63;;
3881;SDS011;1956;53.482;10.238;2023-03-21T10:22:32;57.10;;;31.93;;
3881;SDS011;1956;53.482;10.238;2023-03-21T10:27:32;59.85;;;33.53;;
3881;SDS011;1956;53.482;10.238;2023-03-21T10:32:33;64.77;;;33.10;;
3881;SDS011;1956;53.482;10.238;2023-03-21T10:37:33;69.33;;;33.53;;
3881;SDS011;1956;53.482;10.238;2023-03-21T10:42:35;58.13;;;30.93;;
3881;SDS011;1956;53.482;10.238;2023-03-21T10:47:35;70.20;;;31.57;;
3881;SDS011;1956;53.482;10.238;2023-03-21T10:52:36;67.83;;;31.57;;
3881;SDS011;1956;53.482;10.238;2023-03-21T10:57:37;54.47;;;30.93;;
3881;SDS011;1956;53.482;10.238;2023-03-21T11:02:37;54.88;;;30.48;;
3881;SDS011;1956;53.482;10.238;2023-03-21T11:07:37;47.43;;;29.37;;
3881;SDS011;1956;53.482;10.238;2023-03-21T11:12:39;45.63;;;27.67;;
3881;SDS011;1956;53.482;10.238;2023-03-21T11:17:39;52.43;;;27.57;;
3881;SDS011;1956;53.482;10.238;2023-03-21T11:22:41;48.40;;;27.90;;
3881;SDS011;1956;53.482;10.238;2023-03-21T11:27:48;54.30;;;28.10;;
3881;SDS011;1956;53.482;10.238;2023-03-21T11:32:56;45.97;;;25.87;;
3881;SDS011;1956;53.482;10.238;2023-03-21T11:37:56;45.67;;;26.07;;
3881;SDS011;1956;53.482;10.238;2023-03-21T11:42:57;47.70;;;28.53;;
3881;SDS011;1956;53.482;10.238;2023-03-21T11:47:58;51.90;;;29.50;;
3881;SDS011;1956;53.482;10.238;2023-03-21T11:58:51;54.77;;;29.83;;
3881;SDS011;1956;53.482;10.238;2023-03-21T12:04:11;46.53;;;26.30;;
3881;SDS011;1956;53.482;10.238;2023-03-21T12:09:26;48.40;;;29.33;;
3881;SDS011;1956;53.482;10.238;2023-03-21T12:19:55;55.83;;;27.50;;
3881;SDS011;1956;53.482;10.238;2023-03-21T12:24:59;48.10;;;27.23;;
3881;SDS011;1956;53.482;10.238;2023-03-21T12:30:23;52.70;;;27.73;;
3881;SDS011;1956;53.482;10.238;2023-03-21T12:35:31;39.47;;;25.60;;
3881;SDS011;1956;53.482;10.238;2023-03-21T12:40:37;43.40;;;25.20;;
3881;SDS011;1956;53.482;10.238;2023-03-21T12:45:44;39.37;;;23.70;;
3881;SDS011;1956;53.482;10.238;2023-03-21T12:50:45;51.57;;;27.47;;
3881;SDS011;1956;53.482;10.238;2023-03-21T12:55:48;30.93;;;22.20;;
3881;SDS011;1956;53.482;10.238;2023-03-21T13:00:53;24.53;;;17.00;;
3881;SDS011;1956;53.482;10.238;2023-03-21T13:06:01;30.20;;;17.23;;
3881;SDS011;1956;53.482;10.238;2023-03-21T13:11:03;31.10;;;17.43;;
3881;SDS011;1956;53.482;10.238;2023-03-21T13:16:20;25.70;;;16.43;;
3881;SDS011;1956;53.482;10.238;2023-03-21T13:26:48;25.73;;;19.17;;
3881;SDS011;1956;53.482;10.238;2023-03-21T13:31:50;32.10;;;18.77;;
3881;SDS011;1956;53.482;10.238;2023-03-21T13:36:51;28.40;;;19.20;;
3881;SDS011;1956;53.482;10.238;2023-03-21T13:41:51;26.60;;;17.13;;
3881;SDS011;1956;53.482;10.238;2023-03-21T13:46:54;21.37;;;16.10;;
3881;SDS011;1956;53.482;10.238;2023-03-21T13:51:59;23.00;;;16.63;;
3881;SDS011;1956;53.482;10.238;2023-03-21T13:57:00;24.50;;;16.73;;
3881;SDS011;1956;53.482;10.238;2023-03-21T14:07:40;22.07;;;15.67;;
3881;SDS011;1956;53.482;10.238;2023-03-21T14:12:41;20.90;;;13.90;;
3881;SDS011;1956;53.482;10.238;2023-03-21T14:17:49;19.30;;;14.40;;
3881;SDS011;1956;53.482;10.238;2023-03-21T14:22:50;21.70;;;15.53;;
3881;SDS011;1956;53.482;10.238;2023-03-21T14:27:52;24.33;;;14.33;;
3881;SDS011;1956;53.482;10.238;2023-03-21T14:32:54;24.20;;;16.00;;
3881;SDS011;1956;53.482;10.238;2023-03-21T14:37:55;30.87;;;21.20;;
3881;SDS011;1956;53.482;10.238;2023-03-21T14:43:03;22.20;;;15.50;;
3881;SDS011;1956;53.482;10.238;2023-03-21T14:48:11;25.90;;;17.00;;
3881;SDS011;1956;53.482;10.238;2023-03-21T14:53:21;27.37;;;16.90;;
3881;SDS011;1956;53.482;10.238;2023-03-21T14:58:23;22.73;;;15.80;;
3881;SDS011;1956;53.482;10.238;2023-03-21T15:03:25;26.83;;;17.10;;
3881;SDS011;1956;53.482;10.238;2023-03-21T15:08:27;30.50;;;17.90;;
3881;SDS011;1956;53.482;10.238;2023-03-21T15:13:31;29.10;;;18.17;;
3881;SDS011;1956;53.482;10.238;2023-03-21T15:18:33;29.13;;;18.13;;
3881;SDS011;1956;53.482;10.238;2023-03-21T15:23:34;32.40;;;20.23;;
3881;SDS011;1956;53.482;10.238;2023-03-21T15:28:37;32.33;;;17.93;;
3881;SDS011;1956;53.482;10.238;2023-03-21T15:33:37;32.07;;;18.23;;
3881;SDS011;1956;53.482;10.238;2023-03-21T15:38:39;27.53;;;18.00;;
3881;SDS011;1956;53.482;10.238;2023-03-21T15:43:40;25.17;;;16.77;;
3881;SDS011;1956;53.482;10.238;2023-03-21T15:48:41;28.03;;;18.50;;
3881;SDS011;1956;53.482;10.238;2023-03-21T15:53:41;22.30;;;14.63;;
3881;SDS011;1956;53.482;10.238;2023-03-21T15:58:43;20.00;;;15.53;;
3881;SDS011;1956;53.482;10.238;2023-03-21T16:03:47;24.87;;;17.70;;
3881;SDS011;1956;53.482;10.238;2023-03-21T16:08:49;18.87;;;13.30;;
3881;SDS011;1956;53.482;10.238;2023-03-21T16:13:50;17.17;;;11.70;;
3881;SDS011;1956;53.482;10.238;2023-03-21T16:18:50;20.50;;;14.47;;
3881;SDS011;1956;53.482;10.238;2023-03-21T16:23:51;21.33;;;12.73;;
3881;SDS011;1956;53.482;10.238;2023-03-21T16:28:52;22.90;;;15.00;;
3881;SDS011;1956;53.482;10.238;2023-03-21T16:33:52;21.33;;;13.90;;
3881;SDS011;1956;53.482;10.238;2023-03-21T16:38:53;20.57;;;11.87;;
3881;SDS011;1956;53.482;10.238;2023-03-21T16:43:53;16.07;;;12.00;;
3881;SDS011;1956;53.482;10.238;2023-03-21T16:48:55;34.47;;;24.27;;
3881;SDS011;1956;53.482;10.238;2023-03-21T16:53:55;21.23;;;14.17;;
3881;SDS011;1956;53.482;10.238;2023-03-21T16:58:56;19.07;;;10.87;;
3881;SDS011;1956;53.482;10.238;2023-03-21T17:03:57;24.17;;;12.90;;
3881;SDS011;1956;53.482;10.238;2023-03-21T17:08:57;19.50;;;11.97;;
3881;SDS011;1956;53.482;10.238;2023-03-21T17:13:58;24.87;;;11.80;;
3881;SDS011;1956;53.482;10.238;2023-03-21T17:18:58;20.90;;;11.50;;
3881;SDS011;1956;53.482;10.238;2023-03-21T17:23:59;17.73;;;11.50;;
3881;SDS011;1956;53.482;10.238;2023-03-21T17:29:00;24.17;;;13.07;;
3881;SDS011;1956;53.482;10.238;2023-03-21T17:34:00;21.07;;;13.53;;
3881;SDS011;1956;53.482;10.238;2023-03-21T17:39:01;22.00;;;13.53;;
3881;SDS011;1956;53.482;10.238;2023-03-21T17:44:01;29.03;;;13.00;;
3881;SDS011;1956;53.482;10.238;2023-03-21T17:49:02;18.20;;;12.80;;
3881;SDS011;1956;53.482;10.238;2023-03-21T17:54:02;18.70;;;13.10;;
3881;SDS011;1956;53.482;10.238;2023-03-21T17:59:04;20.17;;;14.20;;
3881;SDS011;1956;53.482;10.238;2023-03-21T18:04:05;24.40;;;15.10;;
3881;SDS011;1956;53.482;10.238;2023-03-21T18:09:06;26.03;;;16.20;;
3881;SDS011;1956;53.482;10.238;2023-03-21T18:14:09;26.33;;;15.93;;
3881;SDS011;1956;53.482;10.238;2023-03-21T18:19:10;30.43;;;18.20;;
3881;SDS011;1956;53.482;10.238;2023-03-21T18:24:12;34.83;;;18.70;;
3881;SDS011;1956;53.482;10.238;2023-03-21T18:29:12;30.63;;;18.13;;
3881;SDS011;1956;53.482;10.238;2023-03-21T18:34:15;36.70;;;17.43;;
3881;SDS011;1956;53.482;10.238;2023-03-21T18:39:15;31.33;;;14.95;;
3881;SDS011;1956;53.482;10.238;2023-03-21T18:44:16;22.37;;;15.97;;
3881;SDS011;1956;53.482;10.238;2023-03-21T18:49:16;30.77;;;16.93;;
3881;SDS011;1956;53.482;10.238;2023-03-21T18:54:17;25.03;;;15.43;;
3881;SDS011;1956;53.482;10.238;2023-03-21T18:59:17;21.75;;;14.30;;
3881;SDS011;1956;53.482;10.238;2023-03-21T19:04:21;28.93;;;15.90;;
3881;SDS011;1956;53.482;10.238;2023-03-21T19:09:22;25.43;;;15.30;;
3881;SDS011;1956;53.482;10.238;2023-03-21T19:14:23;40.50;;;16.23;;
3881;SDS011;1956;53.482;10.238;2023-03-21T19:19:23;38.23;;;17.50;;
3881;SDS011;1956;53.482;10.238;2023-03-21T19:24:24;39.50;;;23.43;;
3881;SDS011;1956;53.482;10.238;2023-03-21T19:29:24;48.67;;;23.43;;
3881;SDS011;1956;53.482;10.238;2023-03-21T19:34:24;40.80;;;21.17;;
3881;SDS011;1956;53.482;10.238;2023-03-21T19:39:26;36.70;;;19.00;;
3881;SDS011;1956;53.482;10.238;2023-03-21T19:44:26;51.05;;;21.35;;
3881;SDS011;1956;53.482;10.238;2023-03-21T19:49:27;36.80;;;18.77;;
3881;SDS011;1956;53.482;10.238;2023-03-21T19:54:28;37.17;;;18.73;;
3881;SDS011;1956;53.482;10.238;2023-03-21T19:59:29;49.63;;;20.50;;
3881;SDS011;1956;53.482;10.238;2023-03-21T20:04:31;35.33;;;19.50;;
3881;SDS011;1956;53.482;10.238;2023-03-21T20:09:31;79.05;;;24.38;;
3881;SDS011;1956;53.482;10.238;2023-03-21T20:14:31;42.37;;;21.30;;
3881;SDS011;1956;53.482;10.238;2023-03-21T20:19:32;53.63;;;24.00;;
3881;SDS011;1956;53.482;10.238;2023-03-21T20:24:32;47.40;;;22.77;;
3881;SDS011;1956;53.482;10.238;2023-03-21T20:29:32;41.45;;;23.40;;
3881;SDS011;1956;53.482;10.238;2023-03-21T20:34:33;42.20;;;22.17;;
3881;SDS011;1956;53.482;10.238;2023-03-21T20:39:34;52.67;;;24.00;;
3881;SDS011;1956;53.482;10.238;2023-03-21T20:44:34;46.57;;;25.10;;
3881;SDS011;1956;53.482;10.238;2023-03-21T20:49:34;86.75;;;26.38;;
3881;SDS011;1956;53.482;10.238;2023-03-21T20:54:35;53.83;;;25.87;;
3881;SDS011;1956;53.482;10.238;2023-03-21T20:59:36;65.63;;;26.43;;
3881;SDS011;1956;53.482;10.238;2023-03-21T21:04:36;55.50;;;25.70;;
3881;SDS011;1956;53.482;10.238;2023-03-21T21:09:36;65.67;;;26.77;;
3881;SDS011;1956;53.482;10.238;2023-03-21T21:14:39;70.10;;;27.20;;
3881;SDS011;1956;53.482;10.238;2023-03-21T21:19:39;66.67;;;29.00;;
3881;SDS011;1956;53.482;10.238;2023-03-21T21:24:42;68.63;;;28.10;;
3881;SDS011;1956;53.482;10.238;2023-03-21T21:29:42;59.33;;;27.20;;
3881;SDS011;1956;53.482;10.238;2023-03-21T21:34:45;67.77;;;27.77;;
3881;SDS011;1956;53.482;10.238;2023-03-21T21:39:47;55.63;;;27.87;;
3881;SDS011;1956;53.482;10.238;2023-03-21T21:44:47;50.83;;;25.90;;
3881;SDS011;1956;53.482;10.238;2023-03-21T21:49:47;96.38;;;27.90;;
3881;SDS011;1956;53.482;10.238;2023-03-21T21:54:48;53.77;;;25.57;;
3881;SDS011;1956;53.482;10.238;2023-03-21T21:59:48;47.43;;;21.83;;
3881;SDS011;1956;53.482;10.238;2023-03-21T22:04:55;44.20;;;23.00;;
3881;SDS011;1956;53.482;10.238;2023-03-21T22:09:58;40.97;;;20.57;;
3881;SDS011;1956;53.482;10.238;2023-03-21T22:14:58;50.40;;;20.97;;
3881;SDS011;1956;53.482;10.238;2023-03-21T22:19:59;40.77;;;18.77;;
3881;SDS011;1956;53.482;10.238;2023-03-21T22:25:00;40.63;;;18.47;;
3881;SDS011;1956;53.482;10.238;2023-03-21T22:30:00;37.83;;;19.05;;
3881;SDS011;1956;53.482;10.238;2023-03-21T22:35:04;35.40;;;19.20;;
3881;SDS011;1956;53.482;10.238;2023-03-21T22:40:05;31.70;;;17.47;;
3881;SDS011;1956;53.482;10.238;2023-03-21T22:45:09;34.10;;;17.47;;
3881;SDS011;1956;53.482;10.238;2023-03-21T22:50:09;35.67;;;17.90;;
3881;SDS011;1956;53.482;10.238;2023-03-21T22:55:09;30.13;;;16.83;;
3881;SDS011;1956;53.482;10.238;2023-03-21T23:00:12;30.90;;;16.80;;
3881;SDS011;1956;53.482;10.238;2023-03-21T23:05:12;31.00;;;16.10;;
3881;SDS011;1956;53.482;10.238;2023-03-21T23:10:12;34.73;;;16.33;;
3881;SDS011;1956;53.482;10.238;2023-03-21T23:15:12;32.53;;;16.95;;
3881;SDS011;1956;53.482;10.238;2023-03-21T23:20:13;24.40;;;16.35;;
3881;SDS011;1956;53.482;10.238;2023-03-21T23:25:13;32.33;;;16.60;;
3881;SDS011;1956;53.482;10.238;2023-03-21T23:30:13;36.40;;;15.00;;
3881;SDS011;1956;53.482;10.238;2023-03-21T23:35:14;31.73;;;15.40;;
3881;SDS011;1956;53.482;10.238;2023-03-21T23:40:14;26.70;;;16.63;;
3881;SDS011;1956;53.482;10.238;2023-03-21T23:45:15;28.27;;;16.03;;
3881;SDS011;1956;53.482;10.238;2023-03-21T23:50:15;25.87;;;15.80;;
3881;SDS011;1956;53.482;10.238;2023-03-21T23:55:15;32.40;;;17.07;;
